Terminal Aerodrome Forecast
Issued by NWS Houston/Galveston TX

Current Version | Previous Version | Text Only | Print | Product List | Glossary Off
Versions: 1 2 3 4 5 6 7 8 9 10 11 12 13 14 15 16 17 18 19 20 21 22 23 24 25 26 27 28 29 30 31 32 33 34 35 36 37 38 39 40 41 42 43 44 45 46 47 48

000
FTUS44 KHGX 311739
TAFHOU
TAF
KHOU 311739Z 3118/0118 15008KT P6SM VCTS SCT040CB BKN250
      TEMPO 3119/3122 VRB15G25KT 6SM -TSRA BR
     FM010100 VRB05KT P6SM BKN250
     FM011300 12005KT P6SM VCSH SCT025 BKN250=

USA.gov is the U.S. government's official web portal to all federal, state and local government web resources and services.